Time,TemperatureF,DewpointF,PressureIn,WindDirection,WindDirectionDegrees,WindSpeedMPH,WindSpeedGustMPH,Humidity,HourlyPrecipIn,Conditions,Clouds,dailyrainin,SoftwareType,DateUTC
2013-12-12 00:01:00,23.4,16.0,30.43,WNW,296,4.0,13.0,73,0.00,,,0.00,VWS V14.01,2013-12-12 05:01:00,
2013-12-12 00:02:00,23.4,16.0,30.43,WNW,282,4.0,13.0,73,0.00,,,0.00,VWS V14.01,2013-12-12 05:02:00,
2013-12-12 00:03:00,23.3,15.9,30.44,NW,307,4.0,13.0,73,0.00,,,0.00,VWS V14.01,2013-12-12 05:03:00,
2013-12-12 00:08:00,23.2,15.8,30.43,WNW,296,6.0,13.0,73,0.00,,,0.00,VWS V14.01,2013-12-12 05:08:00,
2013-12-12 00:13:00,23.0,15.0,30.43,WNW,285,4.0,13.0,71,0.00,,,0.00,VWS V14.01,2013-12-12 05:13:00,
2013-12-12 00:18:00,22.7,14.1,30.44,NW,317,10.0,17.0,69,0.00,,,0.00,VWS V14.01,2013-12-12 05:18:00,
2013-12-12 00:23:00,22.6,14.0,30.44,WNW,302,10.0,17.0,69,0.00,,,0.00,VWS V14.01,2013-12-12 05:23:00,
2013-12-12 00:28:00,22.5,13.9,30.44,WSW,251,1.0,17.0,69,0.00,,,0.00,VWS V14.01,2013-12-12 05:28:00,
2013-12-12 00:33:00,22.3,13.7,30.45,NW,306,5.0,9.0,69,0.00,,,0.00,VWS V14.01,2013-12-12 05:33:00,
2013-12-12 00:38:00,22.2,13.3,30.45,NW,315,8.0,11.0,68,0.00,,,0.00,VWS V14.01,2013-12-12 05:38:00,
2013-12-12 00:43:00,22.1,13.2,30.45,NW,317,5.0,11.0,68,0.00,,,0.00,VWS V14.01,2013-12-12 05:43:00,
2013-12-12 00:48:00,22.0,13.1,30.46,West,277,1.0,11.0,68,0.00,,,0.00,VWS V14.01,2013-12-12 05:48:00,
2013-12-12 00:54:00,21.8,12.9,30.46,WNW,302,3.0,11.0,68,0.00,,,0.00,VWS V14.01,2013-12-12 05:54:00,
2013-12-12 00:59:00,21.7,13.1,30.46,West,273,7.0,7.0,69,0.00,,,0.00,VWS V14.01,2013-12-12 05:59:00,
2013-12-12 01:04:00,21.5,12.9,30.45,NW,311,7.0,7.0,69,0.00,,,0.00,VWS V14.01,2013-12-12 06:04:00,
2013-12-12 01:09:00,21.5,13.2,30.46,WNW,303,6.0,15.0,70,0.00,,,0.00,VWS V14.01,2013-12-12 06:09:00,
2013-12-12 01:14:00,21.3,13.1,30.46,WNW,293,3.0,15.0,70,0.00,,,0.00,VWS V14.01,2013-12-12 06:14:00,
2013-12-12 01:19:00,21.1,13.2,30.46,WNW,288,2.0,15.0,71,0.00,,,0.00,VWS V14.01,2013-12-12 06:19:00,
2013-12-12 01:24:00,20.9,13.0,30.46,WNW,290,0.0,15.0,71,0.00,,,0.00,VWS V14.01,2013-12-12 06:24:00,
2013-12-12 01:29:00,20.7,13.1,30.46,West,269,0.0,3.0,72,0.00,,,0.00,VWS V14.01,2013-12-12 06:29:00,
2013-12-12 01:34:00,20.6,13.0,30.46,NW,306,5.0,12.0,72,0.00,,,0.00,VWS V14.01,2013-12-12 06:34:00,
2013-12-12 01:39:00,20.4,13.1,30.46,WSW,242,1.0,12.0,73,0.00,,,0.00,VWS V14.01,2013-12-12 06:39:00,
2013-12-12 01:44:00,20.2,12.9,30.46,WNW,300,3.0,12.0,73,0.00,,,0.00,VWS V14.01,2013-12-12 06:44:00,
2013-12-12 01:49:00,20.1,13.2,30.46,West,270,0.0,12.0,74,0.00,,,0.00,VWS V14.01,2013-12-12 06:49:00,
2013-12-12 01:54:00,20.0,13.1,30.46,WNW,294,0.0,12.0,74,0.00,,,0.00,VWS V14.01,2013-12-12 06:54:00,
2013-12-12 01:59:00,19.7,12.8,30.46,WNW,294,0.0,0.0,74,0.00,,,0.00,VWS V14.01,2013-12-12 06:59:00,
2013-12-12 02:05:00,19.5,12.6,30.46,WNW,294,0.0,0.0,74,0.00,,,0.00,VWS V14.01,2013-12-12 07:05:00,
2013-12-12 02:10:00,19.3,12.4,30.46,WNW,294,0.0,0.0,74,0.00,,,0.00,VWS V14.01,2013-12-12 07:10:00,
2013-12-12 02:15:00,19.1,12.5,30.46,WNW,294,0.0,0.0,75,0.00,,,0.00,VWS V14.01,2013-12-12 07:15:00,
2013-12-12 02:20:00,18.9,12.3,30.46,WNW,294,0.0,0.0,75,0.00,,,0.00,VWS V14.01,2013-12-12 07:20:00,
2013-12-12 02:25:00,18.7,12.1,30.46,WNW,294,0.0,0.0,75,0.00,,,0.00,VWS V14.01,2013-12-12 07:25:00,
2013-12-12 02:30:00,18.5,12.2,30.46,WNW,294,0.0,0.0,76,0.00,,,0.00,VWS V14.01,2013-12-12 07:30:00,
2013-12-12 02:35:00,18.4,12.1,30.46,WNW,294,0.0,0.0,76,0.00,,,0.00,VWS V14.01,2013-12-12 07:35:00,
2013-12-12 02:40:00,18.3,12.0,30.46,WNW,294,0.0,0.0,76,0.00,,,0.00,VWS V14.01,2013-12-12 07:40:00,
2013-12-12 02:45:00,18.2,11.9,30.46,WNW,294,0.0,0.0,76,0.00,,,0.00,VWS V14.01,2013-12-12 07:45:00,
2013-12-12 02:50:00,18.0,11.7,30.46,WNW,294,0.0,0.0,76,0.00,,,0.00,VWS V14.01,2013-12-12 07:50:00,
2013-12-12 02:55:00,17.9,11.9,30.46,WNW,294,0.0,0.0,77,0.00,,,0.00,VWS V14.01,2013-12-12 07:55:00,
2013-12-12 03:00:00,18.0,12.0,30.46,WNW,294,0.0,0.0,77,0.00,,,0.00,VWS V14.01,2013-12-12 08:00:00,
2013-12-12 03:05:00,18.1,12.1,30.47,WNW,294,0.0,0.0,77,0.00,,,0.00,VWS V14.01,2013-12-12 08:05:00,
2013-12-12 03:10:00,18.3,12.6,30.47,WNW,294,0.0,0.0,78,0.00,,,0.00,VWS V14.01,2013-12-12 08:10:00,
2013-12-12 03:15:00,18.3,12.6,30.47,WNW,294,0.0,0.0,78,0.00,,,0.00,VWS V14.01,2013-12-12 08:15:00,
2013-12-12 03:21:00,18.3,12.6,30.47,WNW,294,0.0,0.0,78,0.00,,,0.00,VWS V14.01,2013-12-12 08:21:00,
2013-12-12 03:26:00,18.4,12.7,30.47,WSW,242,0.0,1.0,78,0.00,,,0.00,VWS V14.01,2013-12-12 08:26:00,
2013-12-12 03:31:00,18.7,13.0,30.47,WSW,238,2.0,3.0,78,0.00,,,0.00,VWS V14.01,2013-12-12 08:31:00,
2013-12-12 03:36:00,19.2,13.5,30.47,West,269,3.0,4.0,78,0.00,,,0.00,VWS V14.01,2013-12-12 08:36:00,
2013-12-12 03:41:00,19.5,13.5,30.47,West,266,0.0,4.0,77,0.00,,,0.00,VWS V14.01,2013-12-12 08:41:00,
2013-12-12 03:46:00,19.6,13.6,30.47,WNW,294,2.0,5.0,77,0.00,,,0.00,VWS V14.01,2013-12-12 08:46:00,
2013-12-12 03:51:00,19.7,13.7,30.47,West,279,0.0,5.0,77,0.00,,,0.00,VWS V14.01,2013-12-12 08:51:00,
2013-12-12 03:56:00,19.7,13.7,30.47,NW,304,2.0,5.0,77,0.00,,,0.00,VWS V14.01,2013-12-12 08:56:00,
2013-12-12 04:01:00,19.7,14.0,30.47,NW,311,2.0,4.0,78,0.00,,,0.00,VWS V14.01,2013-12-12 09:01:00,
2013-12-12 04:06:00,19.5,14.1,30.47,WNW,294,5.0,12.0,79,0.00,,,0.00,VWS V14.01,2013-12-12 09:06:00,
2013-12-12 04:11:00,19.0,13.9,30.47,WSW,244,0.0,12.0,80,0.00,,,0.00,VWS V14.01,2013-12-12 09:11:00,
2013-12-12 04:16:00,18.8,13.9,30.47,WSW,247,3.0,12.0,81,0.00,,,0.00,VWS V14.01,2013-12-12 09:16:00,
2013-12-12 04:21:00,18.7,13.9,30.47,WNW,291,7.0,12.0,81,0.00,,,0.00,VWS V14.01,2013-12-12 09:21:00,
2013-12-12 04:26:00,18.5,13.6,30.47,West,259,0.0,12.0,81,0.00,,,0.00,VWS V14.01,2013-12-12 09:26:00,
2013-12-12 04:31:00,18.4,13.6,30.47,WNW,284,4.0,5.0,81,0.00,,,0.00,VWS V14.01,2013-12-12 09:31:00,
2013-12-12 04:37:00,18.4,13.6,30.47,West,270,0.0,7.0,81,0.00,,,0.00,VWS V14.01,2013-12-12 09:37:00,
2013-12-12 04:42:00,18.2,13.1,30.48,WNW,294,2.0,7.0,80,0.00,,,0.00,VWS V14.01,2013-12-12 09:42:00,
2013-12-12 04:47:00,18.1,13.3,30.48,West,279,3.0,8.0,81,0.00,,,0.00,VWS V14.01,2013-12-12 09:47:00,
2013-12-12 04:52:00,17.9,12.8,30.48,WNW,294,4.0,8.0,80,0.00,,,0.00,VWS V14.01,2013-12-12 09:52:00,
2013-12-12 04:57:00,17.7,12.9,30.47,WNW,301,3.0,8.0,81,0.00,,,0.00,VWS V14.01,2013-12-12 09:57:00,
2013-12-12 05:02:00,17.6,12.8,30.48,WNW,296,0.0,4.0,81,0.00,,,0.00,VWS V14.01,2013-12-12 10:02:00,
2013-12-12 05:07:00,17.6,12.8,30.48,WNW,288,0.0,4.0,81,0.00,,,0.00,VWS V14.01,2013-12-12 10:07:00,
2013-12-12 05:12:00,17.6,12.5,30.48,WNW,292,3.0,4.0,80,0.00,,,0.00,VWS V14.01,2013-12-12 10:12:00,
2013-12-12 05:17:00,17.6,12.5,30.48,WNW,299,0.0,4.0,80,0.00,,,0.00,VWS V14.01,2013-12-12 10:17:00,
2013-12-12 05:22:00,17.5,12.4,30.48,WNW,299,0.0,4.0,80,0.00,,,0.00,VWS V14.01,2013-12-12 10:22:00,
2013-12-12 05:27:00,17.5,12.1,30.48,WNW,299,0.0,4.0,79,0.00,,,0.00,VWS V14.01,2013-12-12 10:27:00,
2013-12-12 05:32:00,17.4,12.3,30.48,West,263,0.0,0.0,80,0.00,,,0.00,VWS V14.01,2013-12-12 10:32:00,
2013-12-12 05:37:00,17.3,12.2,30.49,West,259,1.0,4.0,80,0.00,,,0.00,VWS V14.01,2013-12-12 10:37:00,
2013-12-12 05:42:00,17.2,12.1,30.49,West,267,0.0,4.0,80,0.00,,,0.00,VWS V14.01,2013-12-12 10:42:00,
2013-12-12 05:47:00,17.0,11.9,30.49,WNW,292,0.0,4.0,80,0.00,,,0.00,VWS V14.01,2013-12-12 10:47:00,
2013-12-12 05:53:00,17.0,11.6,30.49,West,270,0.0,4.0,79,0.00,,,0.00,VWS V14.01,2013-12-12 10:53:00,
2013-12-12 05:58:00,17.0,11.3,30.49,West,280,3.0,5.0,78,0.00,,,0.00,VWS V14.01,2013-12-12 10:58:00,
2013-12-12 06:03:00,17.0,10.8,30.49,West,277,0.0,1.0,76,0.00,,,0.00,VWS V14.01,2013-12-12 11:03:00,
2013-12-12 06:08:00,16.9,10.4,30.49,West,267,0.0,3.0,75,0.00,,,0.00,VWS V14.01,2013-12-12 11:08:00,
2013-12-12 06:13:00,17.0,10.2,30.50,WNW,294,0.0,3.0,74,0.00,,,0.00,VWS V14.01,2013-12-12 11:13:00,
2013-12-12 06:18:00,17.0,9.9,30.50,West,279,0.0,3.0,73,0.00,,,0.00,VWS V14.01,2013-12-12 11:18:00,
2013-12-12 06:23:00,17.2,10.1,30.50,West,261,0.0,3.0,73,0.00,,,0.00,VWS V14.01,2013-12-12 11:23:00,
2013-12-12 06:28:00,17.3,10.1,30.50,West,259,0.0,3.0,73,0.00,,,0.00,VWS V14.01,2013-12-12 11:28:00,
2013-12-12 06:33:00,17.3,9.8,30.50,WSW,258,1.0,2.0,72,0.00,,,0.00,VWS V14.01,2013-12-12 11:33:00,
2013-12-12 06:38:00,17.3,9.8,30.50,West,263,0.0,2.0,72,0.00,,,0.00,VWS V14.01,2013-12-12 11:38:00,
2013-12-12 06:43:00,17.2,9.7,30.51,West,268,0.0,2.0,72,0.00,,,0.00,VWS V14.01,2013-12-12 11:43:00,
2013-12-12 06:48:00,17.1,9.9,30.51,West,278,3.0,4.0,73,0.00,,,0.00,VWS V14.01,2013-12-12 11:48:00,
2013-12-12 06:53:00,17.0,9.9,30.51,West,275,0.0,4.0,73,0.00,,,0.00,VWS V14.01,2013-12-12 11:53:00,
2013-12-12 06:58:00,16.8,9.7,30.51,WSW,249,2.0,5.0,73,0.00,,,0.00,VWS V14.01,2013-12-12 11:58:00,
2013-12-12 07:03:00,16.7,9.9,30.52,West,275,5.0,10.0,74,0.00,,,0.00,VWS V14.01,2013-12-12 12:03:00,
2013-12-12 07:09:00,16.4,9.6,30.52,WNW,293,0.0,10.0,74,0.00,,,0.00,VWS V14.01,2013-12-12 12:09:00,
2013-12-12 07:14:00,16.1,9.3,30.51,WNW,292,3.0,10.0,74,0.00,,,0.00,VWS V14.01,2013-12-12 12:14:00,
2013-12-12 07:19:00,15.8,8.7,30.52,WNW,284,0.0,10.0,73,0.00,,,0.00,VWS V14.01,2013-12-12 12:19:00,
2013-12-12 07:24:00,15.5,8.4,30.52,SW,221,0.0,10.0,73,0.00,,,0.00,VWS V14.01,2013-12-12 12:24:00,
2013-12-12 07:29:00,15.2,8.1,30.53,WNW,287,2.0,3.0,73,0.00,,,0.00,VWS V14.01,2013-12-12 12:29:00,
2013-12-12 07:34:00,15.0,8.2,30.53,SW,227,0.0,6.0,74,0.00,,,0.00,VWS V14.01,2013-12-12 12:34:00,
2013-12-12 07:39:00,14.9,8.1,30.53,WSW,240,2.0,6.0,74,0.00,,,0.00,VWS V14.01,2013-12-12 12:39:00,
2013-12-12 07:44:00,14.6,7.8,30.53,SW,229,3.0,6.0,74,0.00,,,0.00,VWS V14.01,2013-12-12 12:44:00,
2013-12-12 07:49:00,14.4,7.6,30.54,SW,229,3.0,6.0,74,0.00,,,0.00,VWS V14.01,2013-12-12 12:49:00,
2013-12-12 07:54:00,14.3,7.6,30.54,SW,226,0.0,6.0,74,0.00,,,0.00,VWS V14.01,2013-12-12 12:54:00,
2013-12-12 07:59:00,14.2,7.2,30.54,WSW,242,0.0,2.0,73,0.00,,,0.00,VWS V14.01,2013-12-12 12:59:00,
2013-12-12 08:04:00,14.1,6.8,30.54,West,263,4.0,4.0,72,0.00,,,0.00,VWS V14.01,2013-12-12 13:04:00,
2013-12-12 08:09:00,14.1,6.4,30.55,SW,221,0.0,4.0,71,0.00,,,0.00,VWS V14.01,2013-12-12 13:09:00,
2013-12-12 08:14:00,14.1,6.4,30.55,SW,229,4.0,5.0,71,0.00,,,0.00,VWS V14.01,2013-12-12 13:14:00,
2013-12-12 08:19:00,14.1,6.1,30.55,West,266,0.0,7.0,70,0.00,,,0.00,VWS V14.01,2013-12-12 13:19:00,
2013-12-12 08:24:00,14.2,6.2,30.55,WSW,254,0.0,7.0,70,0.00,,,0.00,VWS V14.01,2013-12-12 13:24:00,
2013-12-12 08:30:00,14.2,5.9,30.55,SW,219,0.0,3.0,69,0.00,,,0.00,VWS V14.01,2013-12-12 13:30:00,
2013-12-12 08:35:00,14.2,5.9,30.55,West,279,2.0,6.0,69,0.00,,,0.00,VWS V14.01,2013-12-12 13:35:00,
2013-12-12 08:40:00,14.4,6.1,30.56,WSW,242,0.0,6.0,69,0.00,,,0.00,VWS V14.01,2013-12-12 13:40:00,
2013-12-12 08:45:00,14.5,6.2,30.56,SSW,195,0.0,6.0,69,0.00,,,0.00,VWS V14.01,2013-12-12 13:45:00,
2013-12-12 08:50:00,14.8,6.8,30.56,West,261,0.0,6.0,70,0.00,,,0.00,VWS V14.01,2013-12-12 13:50:00,
2013-12-12 08:55:00,14.9,6.3,30.56,SW,231,0.0,6.0,68,0.00,,,0.00,VWS V14.01,2013-12-12 13:55:00,
2013-12-12 09:00:00,14.8,5.8,30.56,SW,215,1.0,6.0,67,0.00,,,0.00,VWS V14.01,2013-12-12 14:00:00,
2013-12-12 09:05:00,14.8,6.2,30.56,SW,229,0.0,6.0,68,0.00,,,0.00,VWS V14.01,2013-12-12 14:05:00,
2013-12-12 09:10:00,14.7,6.1,30.56,WNW,288,3.0,7.0,68,0.00,,,0.00,VWS V14.01,2013-12-12 14:10:00,
2013-12-12 09:15:00,14.8,6.2,30.56,WSW,240,0.0,7.0,68,0.00,,,0.00,VWS V14.01,2013-12-12 14:15:00,
2013-12-12 09:20:00,14.7,6.1,30.56,WNW,282,3.0,7.0,68,0.00,,,0.00,VWS V14.01,2013-12-12 14:20:00,
2013-12-12 09:25:00,14.9,6.3,30.56,SW,219,0.0,8.0,68,0.00,,,0.00,VWS V14.01,2013-12-12 14:25:00,
2013-12-12 09:30:00,15.0,6.4,30.56,SW,224,0.0,5.0,68,0.00,,,0.00,VWS V14.01,2013-12-12 14:30:00,
2013-12-12 09:35:00,15.2,6.6,30.56,WSW,243,4.0,5.0,68,0.00,,,0.00,VWS V14.01,2013-12-12 14:35:00,
2013-12-12 09:40:00,15.3,6.7,30.56,West,263,2.0,5.0,68,0.00,,,0.00,VWS V14.01,2013-12-12 14:40:00,
2013-12-12 09:46:00,15.6,6.9,30.56,WSW,240,3.0,5.0,68,0.00,,,0.00,VWS V14.01,2013-12-12 14:46:00,
2013-12-12 09:51:00,15.9,7.5,30.55,WNW,292,4.0,5.0,69,0.00,,,0.00,VWS V14.01,2013-12-12 14:51:00,
2013-12-12 09:56:00,16.2,7.5,30.56,West,278,0.0,6.0,68,0.00,,,0.00,VWS V14.01,2013-12-12 14:56:00,
2013-12-12 10:01:00,16.3,7.3,30.56,SW,236,3.0,9.0,67,0.00,,,0.00,VWS V14.01,2013-12-12 15:01:00,
2013-12-12 10:06:00,16.5,7.8,30.56,South,179,0.0,9.0,68,0.00,,,0.00,VWS V14.01,2013-12-12 15:06:00,
2013-12-12 10:11:00,16.9,8.2,30.56,SSW,194,1.0,9.0,68,0.00,,,0.00,VWS V14.01,2013-12-12 15:11:00,
2013-12-12 10:16:00,16.8,7.4,30.56,WSW,250,6.0,10.0,66,0.00,,,0.00,VWS V14.01,2013-12-12 15:16:00,
2013-12-12 10:21:00,16.8,7.1,30.56,SW,222,1.0,10.0,65,0.00,,,0.00,VWS V14.01,2013-12-12 15:21:00,
2013-12-12 10:26:00,17.1,7.7,30.56,WSW,238,4.0,10.0,66,0.00,,,0.00,VWS V14.01,2013-12-12 15:26:00,
2013-12-12 10:31:00,17.4,7.7,30.55,WSW,248,5.0,5.0,65,0.00,,,0.00,VWS V14.01,2013-12-12 15:31:00,
2013-12-12 10:36:00,17.8,8.4,30.55,SW,221,2.0,5.0,66,0.00,,,0.00,VWS V14.01,2013-12-12 15:36:00,
2013-12-12 10:41:00,18.0,7.9,30.55,SW,217,6.0,8.0,64,0.00,,,0.00,VWS V14.01,2013-12-12 15:41:00,
2013-12-12 10:46:00,18.0,7.5,30.54,SW,218,0.0,8.0,63,0.00,,,0.00,VWS V14.01,2013-12-12 15:46:00,
2013-12-12 10:51:00,18.2,8.4,30.54,SW,226,8.0,8.0,65,0.00,,,0.00,VWS V14.01,2013-12-12 15:51:00,
2013-12-12 10:56:00,18.0,7.2,30.54,SW,220,5.0,8.0,62,0.00,,,0.00,VWS V14.01,2013-12-12 15:56:00,
2013-12-12 11:02:00,18.0,6.8,30.54,WSW,252,7.0,9.0,61,0.00,,,0.00,VWS V14.01,2013-12-12 16:02:00,
2013-12-12 11:07:00,18.0,7.2,30.53,SW,219,0.0,9.0,62,0.00,,,0.00,VWS V14.01,2013-12-12 16:07:00,
2013-12-12 11:12:00,18.1,6.9,30.53,WSW,246,1.0,9.0,61,0.00,,,0.00,VWS V14.01,2013-12-12 16:12:00,
2013-12-12 11:17:00,18.2,7.4,30.52,WSW,238,0.0,9.0,62,0.00,,,0.00,VWS V14.01,2013-12-12 16:17:00,
2013-12-12 11:22:00,18.4,7.6,30.52,SW,236,1.0,9.0,62,0.00,,,0.00,VWS V14.01,2013-12-12 16:22:00,
2013-12-12 11:27:00,18.9,8.1,30.51,West,259,3.0,9.0,62,0.00,,,0.00,VWS V14.01,2013-12-12 16:27:00,
2013-12-12 11:32:00,19.0,8.1,30.51,South,183,4.0,7.0,62,0.00,,,0.00,VWS V14.01,2013-12-12 16:32:00,
2013-12-12 11:37:00,19.2,8.0,30.51,SW,220,6.0,7.0,61,0.00,,,0.00,VWS V14.01,2013-12-12 16:37:00,
2013-12-12 11:42:00,19.6,8.4,30.50,WSW,242,5.0,7.0,61,0.00,,,0.00,VWS V14.01,2013-12-12 16:42:00,
2013-12-12 11:47:00,19.4,7.8,30.50,South,169,1.0,7.0,60,0.00,,,0.00,VWS V14.01,2013-12-12 16:47:00,
2013-12-12 11:52:00,19.5,7.5,30.50,WSW,249,2.0,10.0,59,0.00,,,0.00,VWS V14.01,2013-12-12 16:52:00,
2013-12-12 11:57:00,19.5,7.9,30.49,SSW,198,7.0,10.0,60,0.00,,,0.00,VWS V14.01,2013-12-12 16:57:00,
2013-12-12 12:02:00,19.5,7.1,30.49,SE,143,8.0,9.0,58,0.00,,,0.00,VWS V14.01,2013-12-12 17:02:00,
2013-12-12 12:07:00,19.6,7.2,30.49,SW,221,7.0,10.0,58,0.00,,,0.00,VWS V14.01,2013-12-12 17:07:00,
2013-12-12 12:13:00,19.8,7.4,30.49,SW,214,5.0,10.0,58,0.00,,,0.00,VWS V14.01,2013-12-12 17:13:00,
2013-12-12 12:18:00,20.2,7.8,30.49,WSW,237,0.0,10.0,58,0.00,,,0.00,VWS V14.01,2013-12-12 17:18:00,
2013-12-12 12:23:00,20.3,7.5,30.48,West,277,4.0,10.0,57,0.00,,,0.00,VWS V14.01,2013-12-12 17:23:00,
2013-12-12 12:28:00,20.3,7.5,30.48,SW,223,6.0,14.0,57,0.00,,,0.00,VWS V14.01,2013-12-12 17:28:00,
2013-12-12 12:33:00,20.5,7.3,30.47,WSW,239,1.0,7.0,56,0.00,,,0.00,VWS V14.01,2013-12-12 17:33:00,
2013-12-12 12:38:00,20.7,7.5,30.47,SW,223,2.0,7.0,56,0.00,,,0.00,VWS V14.01,2013-12-12 17:38:00,
2013-12-12 12:43:00,21.2,8.7,30.47,WSW,258,0.0,7.0,58,0.00,,,0.00,VWS V14.01,2013-12-12 17:43:00,
2013-12-12 12:48:00,21.5,8.2,30.46,SSW,207,5.0,10.0,56,0.00,,,0.00,VWS V14.01,2013-12-12 17:48:00,
2013-12-12 12:53:00,21.4,7.8,30.46,SW,227,3.0,10.0,55,0.00,,,0.00,VWS V14.01,2013-12-12 17:53:00,
2013-12-12 12:58:00,21.8,8.9,30.46,SW,233,5.0,10.0,57,0.00,,,0.00,VWS V14.01,2013-12-12 17:58:00,
2013-12-12 13:03:00,21.7,7.6,30.46,SW,221,7.0,11.0,54,0.00,,,0.00,VWS V14.01,2013-12-12 18:03:00,
2013-12-12 13:08:00,21.9,8.2,30.46,South,182,0.0,11.0,55,0.00,,,0.00,VWS V14.01,2013-12-12 18:08:00,
2013-12-12 13:13:00,22.3,8.6,30.46,West,281,8.0,11.0,55,0.00,,,0.00,VWS V14.01,2013-12-12 18:13:00,
2013-12-12 13:18:00,22.3,8.2,30.45,SW,232,2.0,11.0,54,0.00,,,0.00,VWS V14.01,2013-12-12 18:18:00,
2013-12-12 13:23:00,22.5,8.0,30.44,WSW,256,3.0,11.0,53,0.00,,,0.00,VWS V14.01,2013-12-12 18:23:00,
2013-12-12 13:28:00,22.6,8.5,30.44,SSW,199,0.0,0.0,54,0.00,,,0.00,VWS V14.01,2013-12-12 18:28:00,
2013-12-12 13:34:00,22.8,8.7,30.44,SSW,211,4.0,7.0,54,0.00,,,0.00,VWS V14.01,2013-12-12 18:34:00,
2013-12-12 13:39:00,23.0,8.9,30.44,SSW,201,2.0,11.0,54,0.00,,,0.00,VWS V14.01,2013-12-12 18:39:00,
2013-12-12 13:44:00,23.1,8.9,30.44,SW,214,11.0,11.0,54,0.00,,,0.00,VWS V14.01,2013-12-12 18:44:00,
2013-12-12 13:49:00,22.8,7.8,30.44,SW,227,3.0,11.0,52,0.00,,,0.00,VWS V14.01,2013-12-12 18:49:00,
2013-12-12 13:54:00,22.8,8.2,30.44,West,274,4.0,11.0,53,0.00,,,0.00,VWS V14.01,2013-12-12 18:54:00,
2013-12-12 13:59:00,23.0,7.6,30.44,WSW,242,9.0,9.0,51,0.00,,,0.00,VWS V14.01,2013-12-12 18:59:00,
2013-12-12 14:04:00,22.9,7.5,30.44,WSW,246,8.0,12.0,51,0.00,,,0.00,VWS V14.01,2013-12-12 19:04:00,
2013-12-12 14:09:00,23.3,7.4,30.43,SW,221,3.0,12.0,50,0.00,,,0.00,VWS V14.01,2013-12-12 19:09:00,
2013-12-12 14:14:00,23.4,7.9,30.43,SW,229,2.0,12.0,51,0.00,,,0.00,VWS V14.01,2013-12-12 19:14:00,
2013-12-12 14:19:00,23.6,8.6,30.43,SW,232,4.0,12.0,52,0.00,,,0.00,VWS V14.01,2013-12-12 19:19:00,
2013-12-12 14:24:00,23.8,8.3,30.43,WSW,250,7.0,12.0,51,0.00,,,0.00,VWS V14.01,2013-12-12 19:24:00,
2013-12-12 14:29:00,23.9,8.4,30.43,WSW,245,7.0,7.0,51,0.00,,,0.00,VWS V14.01,2013-12-12 19:29:00,
2013-12-12 14:34:00,24.1,9.5,30.43,West,261,3.0,7.0,53,0.00,,,0.00,VWS V14.01,2013-12-12 19:34:00,
2013-12-12 14:39:00,24.1,8.6,30.43,SW,227,4.0,10.0,51,0.00,,,0.00,VWS V14.01,2013-12-12 19:39:00,
2013-12-12 14:45:00,24.2,8.3,30.43,SW,223,3.0,10.0,50,0.00,,,0.00,VWS V14.01,2013-12-12 19:45:00,
2013-12-12 14:50:00,24.3,8.4,30.43,WSW,251,4.0,12.0,50,0.00,,,0.00,VWS V14.01,2013-12-12 19:50:00,
2013-12-12 14:55:00,24.3,8.4,30.42,SSW,199,4.0,12.0,50,0.00,,,0.00,VWS V14.01,2013-12-12 19:55:00,
2013-12-12 15:00:00,24.2,8.3,30.42,SW,227,1.0,7.0,50,0.00,,,0.00,VWS V14.01,2013-12-12 20:00:00,
2013-12-12 15:05:00,24.4,8.9,30.42,SSW,213,4.0,7.0,51,0.00,,,0.00,VWS V14.01,2013-12-12 20:05:00,
2013-12-12 15:10:00,24.4,7.5,30.42,WSW,253,5.0,10.0,48,0.00,,,0.00,VWS V14.01,2013-12-12 20:10:00,
2013-12-12 15:15:00,24.2,8.3,30.42,West,277,2.0,10.0,50,0.00,,,0.00,VWS V14.01,2013-12-12 20:15:00,
2013-12-12 15:20:00,24.2,8.3,30.42,WNW,290,3.0,10.0,50,0.00,,,0.00,VWS V14.01,2013-12-12 20:20:00,
2013-12-12 15:25:00,24.4,8.4,30.42,West,281,5.0,10.0,50,0.00,,,0.00,VWS V14.01,2013-12-12 20:25:00,
2013-12-12 15:30:00,24.4,8.4,30.42,SW,215,4.0,4.0,50,0.00,,,0.00,VWS V14.01,2013-12-12 20:30:00,
2013-12-12 15:35:00,24.6,8.2,30.42,SW,224,5.0,8.0,49,0.00,,,0.00,VWS V14.01,2013-12-12 20:35:00,
2013-12-12 15:40:00,24.5,8.1,30.42,WSW,243,5.0,10.0,49,0.00,,,0.00,VWS V14.01,2013-12-12 20:40:00,
2013-12-12 15:45:00,24.4,7.5,30.42,SW,234,4.0,10.0,48,0.00,,,0.00,VWS V14.01,2013-12-12 20:45:00,
2013-12-12 15:51:00,24.3,7.4,30.42,SW,226,4.0,10.0,48,0.00,,,0.00,VWS V14.01,2013-12-12 20:51:00,
2013-12-12 15:56:00,24.2,7.3,30.42,SW,232,3.0,10.0,48,0.00,,,0.00,VWS V14.01,2013-12-12 20:56:00,
2013-12-12 16:01:00,24.2,7.3,30.42,SW,217,4.0,11.0,48,0.00,,,0.00,VWS V14.01,2013-12-12 21:01:00,
2013-12-12 16:06:00,24.0,6.7,30.41,SW,230,2.0,11.0,47,0.00,,,0.00,VWS V14.01,2013-12-12 21:06:00,
2013-12-12 16:11:00,23.6,6.8,30.42,SW,225,2.0,11.0,48,0.00,,,0.00,VWS V14.01,2013-12-12 21:11:00,
2013-12-12 16:16:00,23.5,7.2,30.42,SSW,205,0.0,11.0,49,0.00,,,0.00,VWS V14.01,2013-12-12 21:16:00,
2013-12-12 16:21:00,23.4,7.1,30.41,WSW,237,1.0,11.0,49,0.00,,,0.00,VWS V14.01,2013-12-12 21:21:00,
2013-12-12 16:25:00,23.4,7.5,30.41,WSW,250,5.0,11.0,50,0.00,,,0.00,VWS V14.01,2013-12-12 21:25:00,
2013-12-12 16:30:00,23.2,6.9,30.41,SW,219,3.0,7.0,49,0.00,,,0.00,VWS V14.01,2013-12-12 21:30:00,
2013-12-12 16:35:00,23.0,7.1,30.41,SW,224,3.0,7.0,50,0.00,,,0.00,VWS V14.01,2013-12-12 21:35:00,
2013-12-12 16:40:00,22.9,7.5,30.41,SW,230,2.0,8.0,51,0.00,,,0.00,VWS V14.01,2013-12-12 21:40:00,
2013-12-12 16:45:00,22.8,7.4,30.41,SW,218,3.0,8.0,51,0.00,,,0.00,VWS V14.01,2013-12-12 21:45:00,
2013-12-12 16:51:00,22.7,7.7,30.41,SW,230,4.0,8.0,52,0.00,,,0.00,VWS V14.01,2013-12-12 21:51:00,
2013-12-12 16:56:00,22.6,7.2,30.41,SW,226,5.0,8.0,51,0.00,,,0.00,VWS V14.01,2013-12-12 21:56:00,
2013-12-12 17:01:00,22.7,7.3,30.41,SW,222,4.0,7.0,51,0.00,,,0.00,VWS V14.01,2013-12-12 22:01:00,
2013-12-12 17:06:00,22.8,7.4,30.41,SW,229,0.0,7.0,51,0.00,,,0.00,VWS V14.01,2013-12-12 22:06:00,
2013-12-12 17:11:00,23.0,7.6,30.41,SW,215,3.0,8.0,51,0.00,,,0.00,VWS V14.01,2013-12-12 22:11:00,
2013-12-12 17:16:00,23.0,8.0,30.41,SSW,207,0.0,8.0,52,0.00,,,0.00,VWS V14.01,2013-12-12 22:16:00,
2013-12-12 17:21:00,23.0,7.6,30.41,SW,214,4.0,12.0,51,0.00,,,0.00,VWS V14.01,2013-12-12 22:21:00,
2013-12-12 17:26:00,23.1,8.1,30.42,SW,214,5.0,12.0,52,0.00,,,0.00,VWS V14.01,2013-12-12 22:26:00,
2013-12-12 17:31:00,23.2,7.8,30.41,SW,227,2.0,9.0,51,0.00,,,0.00,VWS V14.01,2013-12-12 22:31:00,
2013-12-12 17:36:00,23.1,8.1,30.41,SW,235,3.0,10.0,52,0.00,,,0.00,VWS V14.01,2013-12-12 22:36:00,
2013-12-12 17:41:00,23.2,8.2,30.41,SSW,199,6.0,10.0,52,0.00,,,0.00,VWS V14.01,2013-12-12 22:41:00,
2013-12-12 17:46:00,23.2,8.2,30.41,SW,232,6.0,11.0,52,0.00,,,0.00,VWS V14.01,2013-12-12 22:46:00,
2013-12-12 17:51:00,23.2,7.8,30.41,SSW,192,3.0,11.0,51,0.00,,,0.00,VWS V14.01,2013-12-12 22:51:00,
2013-12-12 17:57:00,23.2,7.8,30.41,SW,229,3.0,11.0,51,0.00,,,0.00,VWS V14.01,2013-12-12 22:57:00,
2013-12-12 18:02:00,23.1,7.7,30.40,South,186,2.0,6.0,51,0.00,,,0.00,VWS V14.01,2013-12-12 23:02:00,
2013-12-12 18:07:00,23.1,7.7,30.40,SSW,203,1.0,8.0,51,0.00,,,0.00,VWS V14.01,2013-12-12 23:07:00,
2013-12-12 18:12:00,23.1,8.1,30.40,South,185,4.0,8.0,52,0.00,,,0.00,VWS V14.01,2013-12-12 23:12:00,
2013-12-12 18:17:00,23.2,8.2,30.40,SW,214,3.0,8.0,52,0.00,,,0.00,VWS V14.01,2013-12-12 23:17:00,
2013-12-12 18:22:00,23.2,8.2,30.40,SSW,210,3.0,9.0,52,0.00,,,0.00,VWS V14.01,2013-12-12 23:22:00,
2013-12-12 18:27:00,23.2,8.2,30.40,SSW,211,5.0,10.0,52,0.00,,,0.00,VWS V14.01,2013-12-12 23:27:00,
2013-12-12 18:32:00,23.3,8.3,30.40,SSW,202,4.0,9.0,52,0.00,,,0.00,VWS V14.01,2013-12-12 23:32:00,
2013-12-12 18:37:00,23.3,7.9,30.40,SSW,209,5.0,10.0,51,0.00,,,0.00,VWS V14.01,2013-12-12 23:37:00,
2013-12-12 18:42:00,23.3,7.9,30.40,SW,215,6.0,13.0,51,0.00,,,0.00,VWS V14.01,2013-12-12 23:42:00,
2013-12-12 18:48:00,23.4,8.4,30.39,South,186,3.0,13.0,52,0.00,,,0.00,VWS V14.01,2013-12-12 23:48:00,
2013-12-12 18:53:00,23.4,7.9,30.39,South,180,9.0,13.0,51,0.00,,,0.00,VWS V14.01,2013-12-12 23:53:00,
2013-12-12 18:58:00,23.4,7.9,30.39,SSW,205,4.0,14.0,51,0.00,,,0.00,VWS V14.01,2013-12-12 23:58:00,
2013-12-12 19:03:00,23.4,7.9,30.39,South,188,12.0,15.0,51,0.00,,,0.00,VWS V14.01,2013-12-13 00:03:00,
2013-12-12 19:08:00,23.4,7.9,30.39,SW,221,7.0,15.0,51,0.00,,,0.00,VWS V14.01,2013-12-13 00:08:00,
2013-12-12 19:13:00,23.3,7.4,30.39,SW,224,10.0,15.0,50,0.00,,,0.00,VWS V14.01,2013-12-13 00:13:00,
2013-12-12 19:18:00,23.2,7.8,30.39,SW,225,2.0,15.0,51,0.00,,,0.00,VWS V14.01,2013-12-13 00:18:00,
2013-12-12 19:23:00,23.0,7.1,30.38,South,173,3.0,15.0,50,0.00,,,0.00,VWS V14.01,2013-12-13 00:23:00,
2013-12-12 19:28:00,22.9,7.5,30.39,South,173,7.0,15.0,51,0.00,,,0.00,VWS V14.01,2013-12-13 00:28:00,
2013-12-12 19:34:00,22.9,7.1,30.39,SSE,159,5.0,12.0,50,0.00,,,0.00,VWS V14.01,2013-12-13 00:34:00,
2013-12-12 19:39:00,22.7,7.3,30.39,SW,217,2.0,12.0,51,0.00,,,0.00,VWS V14.01,2013-12-13 00:39:00,
2013-12-12 19:44:00,22.7,7.3,30.39,SSW,194,3.0,12.0,51,0.00,,,0.00,VWS V14.01,2013-12-13 00:44:00,
2013-12-12 19:49:00,22.6,7.2,30.39,SSW,200,3.0,12.0,51,0.00,,,0.00,VWS V14.01,2013-12-13 00:49:00,
2013-12-12 19:54:00,22.7,7.3,30.39,SSW,203,4.0,12.0,51,0.00,,,0.00,VWS V14.01,2013-12-13 00:54:00,
2013-12-12 19:59:00,22.7,7.3,30.39,SW,221,7.0,7.0,51,0.00,,,0.00,VWS V14.01,2013-12-13 00:59:00,
2013-12-12 20:04:00,22.6,7.2,30.39,SW,233,5.0,8.0,51,0.00,,,0.00,VWS V14.01,2013-12-13 01:04:00,
2013-12-12 20:09:00,22.6,7.2,30.39,South,189,8.0,13.0,51,0.00,,,0.00,VWS V14.01,2013-12-13 01:09:00,
2013-12-12 20:14:00,22.5,7.1,30.39,SSW,211,7.0,13.0,51,0.00,,,0.00,VWS V14.01,2013-12-13 01:14:00,
2013-12-12 20:19:00,22.4,7.0,30.39,SW,223,10.0,13.0,51,0.00,,,0.00,VWS V14.01,2013-12-13 01:19:00,
2013-12-12 20:24:00,22.3,7.4,30.39,SW,225,4.0,13.0,52,0.00,,,0.00,VWS V14.01,2013-12-13 01:24:00,
2013-12-12 20:29:00,22.3,7.4,30.39,SSW,199,4.0,8.0,52,0.00,,,0.00,VWS V14.01,2013-12-13 01:29:00,
2013-12-12 20:35:00,22.3,7.4,30.39,SSW,199,6.0,11.0,52,0.00,,,0.00,VWS V14.01,2013-12-13 01:35:00,
2013-12-12 20:40:00,22.3,7.4,30.39,SSW,200,1.0,11.0,52,0.00,,,0.00,VWS V14.01,2013-12-13 01:40:00,
2013-12-12 20:45:00,22.2,7.3,30.39,South,184,1.0,11.0,52,0.00,,,0.00,VWS V14.01,2013-12-13 01:45:00,
2013-12-12 20:50:00,22.2,7.7,30.39,SW,218,6.0,11.0,53,0.00,,,0.00,VWS V14.01,2013-12-13 01:50:00,
2013-12-12 20:55:00,22.2,7.3,30.39,SSW,199,5.0,13.0,52,0.00,,,0.00,VWS V14.01,2013-12-13 01:55:00,
2013-12-12 21:00:00,22.2,7.7,30.38,SSW,202,1.0,7.0,53,0.00,,,0.00,VWS V14.01,2013-12-13 02:00:00,
2013-12-12 21:05:00,22.1,7.2,30.38,South,180,6.0,11.0,52,0.00,,,0.00,VWS V14.01,2013-12-13 02:05:00,
2013-12-12 21:10:00,22.2,7.7,30.38,SSW,198,2.0,11.0,53,0.00,,,0.00,VWS V14.01,2013-12-13 02:10:00,
2013-12-12 21:15:00,22.2,7.7,30.38,SW,217,2.0,11.0,53,0.00,,,0.00,VWS V14.01,2013-12-13 02:15:00,
2013-12-12 21:20:00,22.1,7.6,30.38,South,185,0.0,11.0,53,0.00,,,0.00,VWS V14.01,2013-12-13 02:20:00,
2013-12-12 21:25:00,22.0,7.5,30.37,SSW,192,0.0,11.0,53,0.00,,,0.00,VWS V14.01,2013-12-13 02:25:00,
2013-12-12 21:30:00,22.0,7.5,30.38,South,178,6.0,6.0,53,0.00,,,0.00,VWS V14.01,2013-12-13 02:30:00,
2013-12-12 21:35:00,22.0,7.9,30.38,SSW,207,8.0,8.0,54,0.00,,,0.00,VWS V14.01,2013-12-13 02:35:00,
2013-12-12 21:40:00,21.9,7.8,30.38,SW,215,0.0,9.0,54,0.00,,,0.00,VWS V14.01,2013-12-13 02:40:00,
2013-12-12 21:46:00,21.8,7.7,30.38,SSW,200,3.0,9.0,54,0.00,,,0.00,VWS V14.01,2013-12-13 02:46:00,
2013-12-12 21:51:00,21.8,7.7,30.38,South,169,1.0,10.0,54,0.00,,,0.00,VWS V14.01,2013-12-13 02:51:00,
2013-12-12 21:56:00,21.8,7.7,30.37,SSW,195,0.0,10.0,54,0.00,,,0.00,VWS V14.01,2013-12-13 02:56:00,
2013-12-12 22:01:00,21.8,8.1,30.37,South,188,2.0,4.0,55,0.00,,,0.00,VWS V14.01,2013-12-13 03:01:00,
2013-12-12 22:06:00,21.7,8.0,30.37,SW,229,5.0,6.0,55,0.00,,,0.00,VWS V14.01,2013-12-13 03:06:00,
2013-12-12 22:11:00,21.7,8.0,30.37,SSW,192,2.0,8.0,55,0.00,,,0.00,VWS V14.01,2013-12-13 03:11:00,
2013-12-12 22:16:00,21.8,8.1,30.37,South,187,3.0,8.0,55,0.00,,,0.00,VWS V14.01,2013-12-13 03:16:00,
2013-12-12 22:21:00,21.8,8.1,30.37,SSW,212,7.0,11.0,55,0.00,,,0.00,VWS V14.01,2013-12-13 03:21:00,
2013-12-12 22:26:00,21.9,8.2,30.37,SSW,209,7.0,11.0,55,0.00,,,0.00,VWS V14.01,2013-12-13 03:26:00,
2013-12-12 22:31:00,21.9,8.2,30.37,SSW,194,4.0,6.0,55,0.00,,,0.00,VWS V14.01,2013-12-13 03:31:00,
2013-12-12 22:36:00,21.8,8.1,30.37,SSW,194,4.0,8.0,55,0.00,,,0.00,VWS V14.01,2013-12-13 03:36:00,
2013-12-12 22:41:00,21.8,8.5,30.37,SW,215,7.0,8.0,56,0.00,,,0.00,VWS V14.01,2013-12-13 03:41:00,
2013-12-12 22:46:00,21.9,8.2,30.37,SSW,198,7.0,8.0,55,0.00,,,0.00,VWS V14.01,2013-12-13 03:46:00,
2013-12-12 22:51:00,22.0,8.3,30.37,SSW,200,5.0,10.0,55,0.00,,,0.00,VWS V14.01,2013-12-13 03:51:00,
2013-12-12 22:56:00,22.0,8.3,30.37,SW,223,8.0,10.0,55,0.00,,,0.00,VWS V14.01,2013-12-13 03:56:00,
2013-12-12 23:02:00,22.1,8.0,30.37,SSW,209,2.0,11.0,54,0.00,,,0.00,VWS V14.01,2013-12-13 04:02:00,
2013-12-12 23:07:00,22.0,8.3,30.36,SW,219,4.0,11.0,55,0.00,,,0.00,VWS V14.01,2013-12-13 04:07:00,
2013-12-12 23:12:00,21.9,8.2,30.37,SSW,207,1.0,11.0,55,0.00,,,0.00,VWS V14.01,2013-12-13 04:12:00,
2013-12-12 23:17:00,22.0,7.9,30.37,SSW,198,4.0,11.0,54,0.00,,,0.00,VWS V14.01,2013-12-13 04:17:00,
2013-12-12 23:22:00,22.1,8.4,30.38,SW,216,2.0,11.0,55,0.00,,,0.00,VWS V14.01,2013-12-13 04:22:00,
2013-12-12 23:27:00,22.1,8.0,30.37,SSW,193,2.0,11.0,54,0.00,,,0.00,VWS V14.01,2013-12-13 04:27:00,
2013-12-12 23:32:00,22.1,8.0,30.37,South,170,1.0,7.0,54,0.00,,,0.00,VWS V14.01,2013-12-13 04:32:00,
2013-12-12 23:37:00,22.1,8.0,30.37,SW,225,2.0,7.0,54,0.00,,,0.00,VWS V14.01,2013-12-13 04:37:00,
2013-12-12 23:42:00,22.1,8.0,30.37,SSW,196,3.0,7.0,54,0.00,,,0.00,VWS V14.01,2013-12-13 04:42:00,
2013-12-12 23:47:00,22.1,8.0,30.37,SSW,209,0.0,7.0,54,0.00,,,0.00,VWS V14.01,2013-12-13 04:47:00,
2013-12-12 23:52:00,22.1,8.0,30.37,SSW,208,0.0,7.0,54,0.00,,,0.00,VWS V14.01,2013-12-13 04:52:00,
2013-12-12 23:57:00,22.0,7.9,30.36,SSW,213,6.0,7.0,54,0.00,,,0.00,VWS V14.01,2013-12-13 04:57:00,